Time;durP1;ratioP1;P1;durP2;ratioP2;P2;SDS_P1;SDS_P2;PMS_P1;PMS_P2;Temp;Humidity;BMP_temperature;BMP_pressure;BME280_temperature;BME280_humidity;BME280_pressure;Samples;Min_cycle;Max_cycle;Signal;HPM_P1;HPM_P2
2023/10/10 00:02:19;;;;;;;21.90;6.40;;;14.80;66.50;;;;;;5055757;28;20182;-77
2023/10/10 00:04:51;;;;;;;20.65;6.10;;;14.80;66.70;;;;;;5073655;28;20488;-74
2023/10/10 00:07:17;;;;;;;27.38;6.85;;;14.70;67.00;;;;;;5055617;28;20029;-75
2023/10/10 00:09:44;;;;;;;23.45;6.78;;;14.60;67.20;;;;;;5055687;28;20093;-73
2023/10/10 00:12:18;;;;;;;23.58;7.20;;;14.60;67.50;;;;;;5055845;28;20024;-74
2023/10/10 00:14:50;;;;;;;20.20;7.50;;;14.60;67.50;;;;;;5055431;28;20143;-74
2023/10/10 00:17:15;;;;;;;22.92;6.85;;;14.60;67.40;;;;;;5056022;28;20021;-83
2023/10/10 00:19:44;;;;;;;26.15;7.53;;;14.60;67.60;;;;;;5073595;28;20539;-73
2023/10/10 00:22:10;;;;;;;20.90;6.95;;;14.60;67.50;;;;;;5055166;28;20380;-72
2023/10/10 00:24:35;;;;;;;29.40;8.10;;;14.60;67.50;;;;;;5055597;28;20025;-72
2023/10/10 00:27:15;;;;;;;24.55;8.02;;;14.60;67.50;;;;;;5055549;28;20024;-73
2023/10/10 00:29:44;;;;;;;26.15;7.47;;;14.60;67.60;;;;;;5073222;28;20488;-73
2023/10/10 00:32:17;;;;;;;22.80;7.07;;;14.60;67.70;;;;;;5072966;28;20428;-74
2023/10/10 00:34:47;;;;;;;21.15;7.32;;;14.50;67.40;;;;;;5065406;28;20021;-73
2023/10/10 00:37:29;;;;;;;19.30;7.43;;;14.50;67.00;;;;;;5073123;28;20072;-74
2023/10/10 00:39:55;;;;;;;20.02;6.97;;;14.40;66.70;;;;;;5073234;28;20032;-74
2023/10/10 00:42:36;;;;;;;28.67;7.72;;;14.50;66.90;;;;;;5072904;28;20020;-72
2023/10/10 00:45:09;;;;;;;19.77;7.40;;;14.40;66.70;;;;;;5073238;28;20380;-72
2023/10/10 00:47:40;;;;;;;16.83;6.72;;;14.50;66.90;;;;;;5072961;28;20468;-73
2023/10/10 00:50:16;;;;;;;24.05;7.38;;;14.40;66.90;;;;;;5072928;28;20168;-72
2023/10/10 00:52:45;;;;;;;23.20;8.07;;;14.40;67.10;;;;;;5072958;28;20016;-73
2023/10/10 00:55:11;;;;;;;17.08;6.55;;;14.30;67.30;;;;;;5073058;28;20104;-75
2023/10/10 00:57:37;;;;;;;21.73;7.15;;;14.30;67.40;;;;;;5073014;28;20104;-73
2023/10/10 01:00:08;;;;;;;26.45;7.53;;;14.30;67.50;;;;;;5054847;28;20031;-73
2023/10/10 01:02:36;;;;;;;26.13;8.80;;;14.30;67.70;;;;;;5072745;28;20556;-76
2023/10/10 01:05:11;;;;;;;22.70;8.02;;;14.30;68.00;;;;;;5079071;28;20024;-75
2023/10/10 01:07:37;;;;;;;24.15;8.15;;;14.30;68.40;;;;;;5079506;28;20025;-73
2023/10/10 01:10:11;;;;;;;23.42;8.07;;;14.20;69.50;;;;;;5079654;28;20083;-73
2023/10/10 01:12:39;;;;;;;22.08;8.02;;;14.20;68.70;;;;;;5079445;28;20024;-72
2023/10/10 01:15:25;;;;;;;24.50;8.00;;;14.20;68.60;;;;;;5079254;28;20421;-73
2023/10/10 01:17:51;;;;;;;;;;;14.20;68.50;;;;;;5079904;28;20016;-74
2023/10/10 01:20:33;;;;;;;25.98;7.97;;;14.10;68.60;;;;;;5079640;28;20260;-82
2023/10/10 01:23:00;;;;;;;20.98;7.60;;;14.20;68.50;;;;;;5061472;28;20043;-72
2023/10/10 01:28:02;;;;;;;25.40;7.43;;;14.20;68.70;;;;;;5079604;28;20028;-72
2023/10/10 01:33:15;;;;;;;21.33;7.63;;;14.20;68.90;;;;;;5079673;28;20051;-75
2023/10/10 01:35:44;;;;;;;20.98;8.10;;;14.10;69.20;;;;;;5079203;28;20044;-73
2023/10/10 01:38:41;;;;;;;21.63;7.68;;;14.10;69.20;;;;;;5079150;28;20023;-73
2023/10/10 01:41:22;;;;;;;24.25;7.63;;;14.10;69.50;;;;;;5079157;28;20120;-75
2023/10/10 01:43:53;;;;;;;20.13;7.38;;;14.10;69.70;;;;;;5061167;28;20472;-72
2023/10/10 01:46:28;;;;;;;25.33;8.02;;;14.10;69.70;;;;;;5079253;28;20025;-73
2023/10/10 01:48:55;;;;;;;29.40;8.25;;;14.10;69.70;;;;;;5079300;28;20384;-80
2023/10/10 01:51:24;;;;;;;22.50;7.50;;;14.00;69.80;;;;;;5079326;28;20047;-80
2023/10/10 01:53:55;;;;;;;25.75;7.97;;;14.10;69.90;;;;;;5079370;28;20035;-74
2023/10/10 01:56:22;;;;;;;26.55;8.77;;;14.00;69.80;;;;;;5078906;28;20364;-74
2023/10/10 01:58:53;;;;;;;24.05;8.45;;;14.00;69.70;;;;;;5079026;28;20027;-74
2023/10/10 02:01:19;;;;;;;29.17;8.32;;;14.00;69.70;;;;;;5078950;28;20048;-72
2023/10/10 02:03:48;;;;;;;24.65;8.38;;;14.00;69.70;;;;;;5078923;28;20075;-73
2023/10/10 02:06:28;;;;;;;24.15;8.40;;;14.00;69.80;;;;;;5078967;28;20104;-73
2023/10/10 02:09:43;;;;;;;24.98;8.13;;;13.90;70.00;;;;;;5079118;28;20469;-78
2023/10/10 02:11:50;;;;;;;26.33;7.55;;;14.00;69.90;;;;;;5061320;28;20441;-73
2023/10/10 02:14:25;;;;;;;21.40;8.23;;;13.90;69.90;;;;;;5078741;28;20045;-72
2023/10/10 02:16:54;;;;;;;24.77;8.38;;;14.00;69.70;;;;;;5076305;28;20036;-76
2023/10/10 02:19:32;;;;;;;25.90;7.85;;;14.00;69.80;;;;;;5075499;28;20048;-73
2023/10/10 02:24:48;;;;;;;21.65;7.40;;;13.90;70.10;;;;;;5075462;28;20116;-76
2023/10/10 02:27:22;;;;;;;18.42;7.50;;;13.90;70.30;;;;;;5075421;28;20024;-72
2023/10/10 02:29:49;;;;;;;25.02;7.50;;;13.80;70.20;;;;;;5075419;28;20028;-73
2023/10/10 02:32:21;;;;;;;25.42;8.30;;;13.80;70.10;;;;;;5075555;28;20029;-73
2023/10/10 02:35:09;;;;;;;20.83;7.00;;;13.80;70.20;;;;;;5075476;28;20024;-72
2023/10/10 02:37:41;;;;;;;22.20;7.85;;;13.80;70.30;;;;;;5075265;28;20028;-72
2023/10/10 02:40:16;;;;;;;28.25;7.50;;;13.80;70.40;;;;;;5075156;28;20020;-72
2023/10/10 02:45:37;;;;;;;23.50;8.20;;;13.70;70.90;;;;;;5020466;28;20666;-71
2023/10/10 02:48:07;;;;;;;22.95;8.80;;;13.70;70.80;;;;;;5057401;28;20024;-72
2023/10/10 02:50:40;;;;;;;23.85;7.30;;;13.60;70.60;;;;;;5075370;28;20032;-72
2023/10/10 02:53:09;;;;;;;27.45;8.40;;;13.70;70.50;;;;;;5074890;28;20029;-72
2023/10/10 02:55:41;;;;;;;24.30;9.05;;;13.70;70.50;;;;;;5074783;28;20377;-75
2023/10/10 02:58:20;;;;;;;22.77;8.30;;;13.60;71.50;;;;;;5074873;28;20017;-72
2023/10/10 03:00:57;;;;;;;25.35;8.68;;;13.60;70.90;;;;;;5075059;28;20043;-74
2023/10/10 03:03:24;;;;;;;22.17;8.40;;;13.50;71.40;;;;;;5076103;28;20097;-77
2023/10/10 03:05:54;;;;;;;17.83;7.40;;;13.50;71.60;;;;;;5074823;28;20105;-73
2023/10/10 03:09:07;;;;;;;18.42;7.93;;;13.40;71.50;;;;;;5057131;28;20021;-72
2023/10/10 03:11:20;;;;;;;20.73;8.35;;;13.50;71.40;;;;;;5070599;28;20067;-72
2023/10/10 03:13:54;;;;;;;18.77;7.18;;;13.50;71.50;;;;;;5074489;28;20495;-72
2023/10/10 03:19:12;;;;;;;20.33;7.32;;;13.50;71.30;;;;;;5074568;28;20027;-76
2023/10/10 03:29:21;;;;;;;20.52;7.57;;;13.40;71.40;;;;;;5074543;28;20028;-73
2023/10/10 03:32:19;;;;;;;23.08;7.60;;;13.40;71.60;;;;;;5074215;28;20466;-73
2023/10/10 03:34:45;;;;;;;19.45;7.60;;;13.50;71.60;;;;;;5073924;28;20072;-72
2023/10/10 03:37:27;;;;;;;22.20;7.53;;;13.40;71.40;;;;;;5074147;28;20028;-72
2023/10/10 03:39:54;;;;;;;22.75;7.35;;;13.40;71.60;;;;;;5073989;28;20107;-73
2023/10/10 05:24:22;;;;;;;24.20;8.50;;;12.80;73.00;;;;;;5052997;28;20028;-73
2023/10/10 05:26:49;;;;;;;26.42;7.90;;;12.80;73.00;;;;;;5052831;28;20028;-73
2023/10/10 05:29:19;;;;;;;19.27;7.18;;;12.80;72.90;;;;;;5052416;28;20108;-77
2023/10/10 05:31:48;;;;;;;20.08;7.75;;;12.80;72.90;;;;;;5052682;28;20025;-73
2023/10/10 05:34:16;;;;;;;27.83;7.28;;;12.80;73.80;;;;;;5052594;28;20025;-72
2023/10/10 05:36:44;;;;;;;26.85;7.35;;;12.80;73.00;;;;;;5055775;28;20033;-73
2023/10/10 05:39:17;;;;;;;23.67;8.05;;;12.80;73.00;;;;;;5052384;28;20024;-75
2023/10/10 05:41:47;;;;;;;19.25;7.15;;;12.90;72.90;;;;;;5052564;28;20438;-74
2023/10/10 05:44:14;;;;;;;29.15;7.82;;;12.90;72.90;;;;;;5052376;28;20021;-73
2023/10/10 05:46:40;;;;;;;28.25;8.00;;;12.90;72.70;;;;;;5052623;28;20466;-74
2023/10/10 05:49:05;;;;;;;23.38;8.45;;;12.90;72.50;;;;;;5052450;28;20039;-77
2023/10/10 05:51:31;;;;;;;34.33;7.93;;;13.00;72.20;;;;;;5038440;28;20025;-75
2023/10/10 05:53:57;;;;;;;26.63;7.57;;;13.00;72.20;;;;;;5038425;28;20029;-74
2023/10/10 05:56:23;;;;;;;25.77;7.95;;;13.00;72.20;;;;;;5056209;28;20036;-74
2023/10/10 05:58:49;;;;;;;34.55;9.23;;;13.00;72.10;;;;;;5055932;28;20013;-73
2023/10/10 06:01:14;;;;;;;27.33;8.85;;;13.00;72.00;;;;;;5056039;28;20079;-73
2023/10/10 06:03:41;;;;;;;29.33;7.85;;;13.00;72.30;;;;;;5037889;28;20118;-74
2023/10/10 06:06:11;;;;;;;22.25;7.13;;;13.00;72.20;;;;;;5055735;28;20021;-74
2023/10/10 06:08:38;;;;;;;22.33;6.80;;;13.10;72.10;;;;;;5037927;28;20543;-74
2023/10/10 06:11:06;;;;;;;28.52;8.90;;;13.20;71.80;;;;;;5037935;28;20025;-73
2023/10/10 06:13:34;;;;;;;27.23;7.07;;;13.20;71.70;;;;;;5055792;28;20017;-74
2023/10/10 06:16:12;;;;;;;21.63;7.63;;;13.20;71.60;;;;;;5055540;28;20029;-72
2023/10/10 06:18:42;;;;;;;27.60;7.97;;;13.30;71.60;;;;;;5055533;28;20017;-74
2023/10/10 06:21:08;;;;;;;29.00;8.38;;;13.40;72.50;;;;;;5055676;28;20024;-76
2023/10/10 06:23:35;;;;;;;25.95;7.82;;;13.40;71.60;;;;;;5055632;28;20373;-73
2023/10/10 06:26:06;;;;;;;20.95;7.30;;;13.50;71.60;;;;;;5055607;28;20030;-74
2023/10/10 06:28:35;;;;;;;27.88;8.65;;;13.60;71.30;;;;;;5037462;28;20025;-74
2023/10/10 06:31:02;;;;;;;22.80;7.60;;;13.60;71.00;;;;;;5039261;28;20051;-73
2023/10/10 06:33:29;;;;;;;31.10;7.75;;;13.70;71.00;;;;;;5021976;28;20041;-72
2023/10/10 06:41:37;;;;;;;25.67;7.95;;;13.80;70.50;;;;;;5056344;28;20083;-82
2023/10/10 06:44:12;;;;;;;21.15;7.38;;;13.90;70.40;;;;;;5055622;28;20114;-83
2023/10/10 06:46:40;;;;;;;26.30;7.30;;;14.00;70.10;;;;;;5055653;28;20053;-80
2023/10/10 06:49:06;;;;;;;30.83;8.93;;;14.10;69.70;;;;;;5055494;28;20059;-82
2023/10/10 06:51:40;;;;;;;29.05;8.35;;;14.10;69.20;;;;;;5055701;28;20390;-75
2023/10/10 06:54:27;;;;;;;24.40;7.70;;;14.20;68.90;;;;;;5057268;28;20070;-77
2023/10/10 06:59:28;;;;;;;24.20;7.77;;;14.30;68.70;;;;;;5056655;28;20060;-83
2023/10/10 07:01:57;;;;;;;25.60;7.65;;;14.40;68.50;;;;;;5037439;28;20288;-74
2023/10/10 07:04:23;;;;;;;24.35;7.28;;;14.60;68.70;;;;;;5055401;28;20056;-72
2023/10/10 07:06:50;;;;;;;41.40;9.02;;;14.60;68.80;;;;;;5058280;28;20021;-75
2023/10/10 07:09:37;;;;;;;24.63;7.53;;;14.70;69.40;;;;;;5061047;28;20021;-80
2023/10/10 07:12:11;;;;;;;21.73;7.22;;;14.90;70.70;;;;;;5070932;28;20144;-83
2023/10/10 07:14:45;;;;;;;21.17;7.15;;;15.10;68.50;;;;;;5061699;28;20385;-76
2023/10/10 07:17:11;;;;;;;27.23;7.80;;;15.20;68.10;;;;;;5058435;28;20122;-82
2023/10/10 07:22:26;;;;;;;27.35;7.70;;;15.60;66.80;;;;;;5078194;28;20111;-78
2023/10/10 07:25:06;;;;;;;38.65;8.38;;;15.80;65.60;;;;;;5075039;28;20025;-78
2023/10/10 07:27:41;;;;;;;37.28;8.75;;;15.90;65.20;;;;;;5057059;28;20365;-78
2023/10/10 07:30:17;;;;;;;27.23;7.72;;;16.10;64.70;;;;;;5075198;28;20039;-74
2023/10/10 07:32:48;;;;;;;24.05;7.82;;;16.10;64.50;;;;;;5074461;28;20508;-77
2023/10/10 07:35:15;;;;;;;27.63;8.38;;;16.30;64.60;;;;;;5074186;28;20071;-72
2023/10/10 07:37:43;;;;;;;24.73;7.85;;;16.40;64.00;;;;;;5073934;28;20032;-72
2023/10/10 07:40:20;;;;;;;25.17;7.78;;;16.40;64.00;;;;;;5056142;28;20028;-74
2023/10/10 07:42:59;;;;;;;20.00;7.15;;;16.50;64.40;;;;;;5056041;28;20027;-73
2023/10/10 07:45:43;;;;;;;23.25;7.70;;;16.60;64.60;;;;;;5055992;28;20020;-74
2023/10/10 07:50:46;;;;;;;21.48;7.90;;;16.80;64.40;;;;;;5074053;28;20028;-73
2023/10/10 07:53:13;;;;;;;24.80;7.40;;;16.90;64.10;;;;;;5073512;28;20027;-72
2023/10/10 07:58:27;;;;;;;31.83;8.40;;;17.30;63.40;;;;;;5073887;28;20576;-73
2023/10/10 08:01:03;;;;;;;23.35;7.82;;;17.50;61.50;;;;;;5074251;28;20028;-72
2023/10/10 08:03:31;;;;;;;23.60;7.05;;;17.70;61.50;;;;;;5074304;28;20054;-73
2023/10/10 08:05:57;;;;;;;24.05;7.72;;;17.90;60.70;;;;;;5074018;28;20047;-74
2023/10/10 08:08:26;;;;;;;23.90;7.47;;;18.10;60.20;;;;;;5073504;28;20434;-72
2023/10/10 08:10:51;;;;;;;23.52;7.55;;;18.30;59.00;;;;;;5073462;28;20074;-72
2023/10/10 08:13:18;;;;;;;24.65;7.78;;;18.50;59.20;;;;;;5073733;28;20043;-72
2023/10/10 08:16:06;;;;;;;31.08;7.47;;;18.60;57.60;;;;;;5073379;28;20112;-73
2023/10/10 08:21:16;;;;;;;22.70;6.70;;;18.90;57.50;;;;;;5073735;28;20070;-72
2023/10/10 08:23:43;;;;;;;19.55;6.43;;;19.10;56.50;;;;;;5073048;28;20024;-72
2023/10/10 08:26:17;;;;;;;21.98;6.07;;;19.20;56.40;;;;;;5073392;28;20063;-72
2023/10/10 08:28:47;;;;;;;16.65;6.43;;;19.40;55.60;;;;;;5073277;28;20126;-73
2023/10/10 08:31:16;;;;;;;21.42;7.45;;;19.50;55.10;;;;;;5055175;28;20038;-72
2023/10/10 08:33:46;;;;;;;21.23;6.13;;;19.60;54.70;;;;;;5072876;28;20532;-72
2023/10/10 08:36:23;;;;;;;22.05;6.78;;;19.80;54.90;;;;;;5072879;28;20124;-72
2023/10/10 08:38:53;;;;;;;22.35;7.47;;;19.90;54.90;;;;;;5054821;28;20409;-71
2023/10/10 08:41:26;;;;;;;21.02;7.32;;;20.00;54.40;;;;;;5068045;28;20027;-72
2023/10/10 08:44:06;;;;;;;22.48;7.18;;;20.10;53.90;;;;;;5062263;28;20445;-72
2023/10/10 08:46:40;;;;;;;20.73;7.47;;;20.30;54.00;;;;;;5062532;28;20023;-73
2023/10/10 08:49:07;;;;;;;19.85;6.90;;;20.50;53.20;;;;;;5060056;28;20025;-73
2023/10/10 08:51:34;;;;;;;16.25;6.20;;;20.70;53.00;;;;;;5059195;28;20025;-75
2023/10/10 08:54:09;;;;;;;27.10;7.32;;;20.80;52.20;;;;;;5057736;28;20020;-73
2023/10/10 08:57:10;;;;;;;26.88;7.18;;;20.80;51.60;;;;;;5060200;28;20090;-73
2023/10/10 08:59:42;;;;;;;22.50;6.57;;;21.00;50.70;;;;;;5053517;28;20047;-73
2023/10/10 09:02:17;;;;;;;19.98;7.13;;;21.10;50.90;;;;;;5064185;28;20544;-79
2023/10/10 09:04:44;;;;;;;20.67;6.47;;;21.20;50.80;;;;;;5055666;28;20021;-76
2023/10/10 09:07:27;;;;;;;31.67;7.55;;;21.50;50.90;;;;;;5042064;28;20021;-76
2023/10/10 09:10:04;;;;;;;28.65;7.85;;;21.50;49.60;;;;;;5051133;28;20021;-74
2023/10/10 09:12:52;;;;;;;22.10;7.25;;;21.50;50.00;;;;;;5060073;28;20017;-72
2023/10/10 09:15:18;;;;;;;15.98;6.03;;;21.50;49.70;;;;;;5061874;28;20060;-73
2023/10/10 09:17:46;;;;;;;19.80;6.45;;;21.50;49.70;;;;;;5060761;28;20116;-73
2023/10/10 09:20:22;;;;;;;25.80;6.47;;;21.60;49.50;;;;;;5060855;28;20119;-71
2023/10/10 09:22:52;;;;;;;17.08;6.05;;;21.70;49.30;;;;;;5059768;28;20028;-72
2023/10/10 09:25:26;;;;;;;21.50;6.55;;;22.00;49.10;;;;;;5062009;28;20032;-72
2023/10/10 09:28:07;;;;;;;23.87;6.70;;;22.10;48.30;;;;;;5064983;28;20529;-72
2023/10/10 09:30:38;;;;;;;19.33;6.68;;;22.30;47.70;;;;;;5066589;28;20025;-71
2023/10/10 09:33:16;;;;;;;21.83;6.90;;;22.50;47.50;;;;;;5062165;28;20059;-72
2023/10/10 09:35:48;;;;;;;20.10;6.60;;;22.40;47.60;;;;;;5043103;28;20025;-71
2023/10/10 09:38:19;;;;;;;19.85;5.72;;;22.50;47.90;;;;;;5063851;28;20028;-72
2023/10/10 09:40:48;;;;;;;22.17;7.38;;;22.50;47.80;;;;;;5061998;28;20452;-72
2023/10/10 09:43:25;;;;;;;16.65;6.25;;;22.60;47.90;;;;;;5063705;28;20441;-72
2023/10/10 09:45:58;;;;;;;25.55;7.28;;;22.70;47.60;;;;;;5063868;28;20535;-73
2023/10/10 09:51:16;;;;;;;22.13;6.55;;;22.50;47.90;;;;;;5062464;28;20025;-71
2023/10/10 09:53:46;;;;;;;16.10;5.57;;;22.60;47.90;;;;;;5063840;28;20075;-72
2023/10/10 09:56:14;;;;;;;19.15;6.20;;;22.70;47.80;;;;;;5063411;28;20373;-73
2023/10/10 09:58:46;;;;;;;18.45;5.72;;;22.70;47.60;;;;;;5057280;28;20489;-72
2023/10/10 10:01:24;;;;;;;14.93;5.53;;;22.80;47.50;;;;;;5055640;28;20025;-74
2023/10/10 10:03:59;;;;;;;20.00;5.47;;;22.80;47.10;;;;;;5070989;28;20056;-73
2023/10/10 10:06:51;;;;;;;18.23;5.88;;;22.80;46.70;;;;;;5075767;28;20024;-74
2023/10/10 10:09:32;;;;;;;19.52;6.25;;;22.90;46.60;;;;;;5075076;28;20377;-72
2023/10/10 10:12:19;;;;;;;22.08;5.95;;;22.90;46.20;;;;;;5075423;28;20025;-73
2023/10/10 10:15:07;;;;;;;23.25;6.55;;;22.90;46.70;;;;;;5075456;28;20021;-72
2023/10/10 10:17:56;;;;;;;30.05;6.88;;;23.00;46.20;;;;;;5075601;28;20056;-72
2023/10/10 10:20:46;;;;;;;19.35;5.78;;;22.90;45.40;;;;;;5075346;28;20021;-74
2023/10/10 10:23:47;;;;;;;20.98;5.55;;;22.90;45.80;;;;;;5075378;28;20480;-75
2023/10/10 10:26:41;;;;;;;17.50;5.93;;;23.00;46.30;;;;;;5075628;28;20096;-72
2023/10/10 10:29:15;;;;;;;22.48;6.15;;;23.10;46.20;;;;;;5057655;28;20025;-72
2023/10/10 10:31:49;;;;;;;16.33;5.70;;;23.40;46.00;;;;;;5075222;28;20020;-72
2023/10/10 10:37:19;;;;;;;17.08;5.90;;;23.70;44.90;;;;;;5074300;28;20064;-72
2023/10/10 10:40:22;;;;;;;20.70;5.93;;;23.80;44.70;;;;;;5057646;28;20031;-75
2023/10/10 10:42:34;;;;;;;22.10;6.75;;;24.00;44.70;;;;;;5075788;28;20025;-76
2023/10/10 10:45:41;;;;;;;18.48;5.18;;;24.10;44.10;;;;;;5078470;28;20051;-74
2023/10/10 10:48:09;;;;;;;18.95;5.88;;;24.20;44.00;;;;;;5053205;28;20358;-74
2023/10/10 10:50:42;;;;;;;22.40;6.25;;;24.30;44.10;;;;;;5044463;28;20029;-73
2023/10/10 10:53:32;;;;;;;18.67;5.93;;;24.30;43.50;;;;;;5063374;28;20028;-73
2023/10/10 11:01:23;;;;;;;23.05;6.00;;;24.20;42.80;;;;;;5054584;28;20017;-78
2023/10/10 11:03:54;;;;;;;17.35;6.03;;;24.20;42.10;;;;;;5052836;28;20052;-75
2023/10/10 11:06:21;;;;;;;16.88;6.22;;;24.20;42.10;;;;;;5058204;28;20017;-75
2023/10/10 11:14:03;;;;;;;17.08;4.93;;;24.50;41.80;;;;;;5054441;28;20663;-74
2023/10/10 11:16:37;;;;;;;28.00;6.85;;;24.60;40.90;;;;;;5058115;28;20037;-74
2023/10/10 11:21:54;;;;;;;16.52;6.07;;;24.80;40.60;;;;;;5058578;28;20037;-76
2023/10/10 11:24:25;;;;;;;23.10;6.60;;;24.80;40.20;;;;;;5046114;28;20074;-75
2023/10/10 11:29:29;;;;;;;18.92;5.75;;;25.00;39.30;;;;;;5055828;28;20482;-77
2023/10/10 11:32:11;;;;;;;23.27;5.85;;;25.10;39.20;;;;;;5039123;28;20025;-76
2023/10/10 11:34:44;;;;;;;17.13;6.00;;;25.20;38.60;;;;;;5055226;28;20208;-77
2023/10/10 11:37:21;;;;;;;21.63;5.32;;;25.40;38.20;;;;;;5050965;28;20022;-76
2023/10/10 11:39:48;;;;;;;22.25;6.20;;;25.50;37.80;;;;;;5042199;28;20028;-76
2023/10/10 11:42:24;;;;;;;16.48;4.90;;;25.80;37.90;;;;;;5056758;28;20016;-78
2023/10/10 11:45:06;;;;;;;18.17;5.47;;;26.00;37.10;;;;;;5057001;28;20033;-76
2023/10/10 11:47:44;;;;;;;19.90;5.82;;;25.90;35.40;;;;;;5074672;28;20021;-77
2023/10/10 11:50:19;;;;;;;19.05;5.70;;;26.00;34.50;;;;;;5044129;28;20025;-77
2023/10/10 11:53:01;;;;;;;18.00;5.63;;;26.10;35.40;;;;;;5044634;28;20024;-77
2023/10/10 11:55:28;;;;;;;20.38;6.05;;;25.90;35.50;;;;;;5045350;28;20044;-76
2023/10/10 11:58:06;;;;;;;21.75;5.80;;;25.90;36.10;;;;;;5044800;28;20017;-75
2023/10/10 12:00:42;;;;;;;23.15;5.88;;;25.90;35.20;;;;;;5049474;28;20032;-78
2023/10/10 12:03:33;;;;;;;25.13;5.50;;;25.80;35.50;;;;;;5044206;28;20041;-75
2023/10/10 12:06:02;;;;;;;13.02;5.13;;;25.80;36.10;;;;;;5059091;28;20431;-75
2023/10/10 12:08:28;;;;;;;21.60;5.22;;;25.80;34.40;;;;;;5044087;28;20049;-75
2023/10/10 12:11:12;;;;;;;20.88;5.97;;;26.00;35.40;;;;;;5045588;28;20032;-76
2023/10/10 12:13:37;;;;;;;16.73;5.53;;;26.10;32.50;;;;;;5053431;28;20048;-76
2023/10/10 12:16:10;;;;;;;19.52;5.57;;;25.90;33.00;;;;;;5035414;28;20076;-76
2023/10/10 12:18:43;;;;;;;20.15;6.30;;;25.80;31.90;;;;;;5035996;28;20028;-78
2023/10/10 12:21:14;;;;;;;16.40;5.45;;;25.70;31.50;;;;;;5035331;28;20052;-76
2023/10/10 12:23:39;;;;;;;19.08;5.55;;;25.80;31.30;;;;;;5035331;28;20128;-75
2023/10/10 12:26:05;;;;;;;14.63;5.63;;;25.90;31.40;;;;;;5035491;28;20025;-76
2023/10/10 12:28:30;;;;;;;17.45;5.30;;;26.00;31.40;;;;;;5053289;28;20025;-76
2023/10/10 12:30:56;;;;;;;22.13;6.13;;;26.30;30.60;;;;;;5052524;28;20025;-76
2023/10/10 12:33:27;;;;;;;14.15;5.43;;;26.30;29.20;;;;;;5035548;28;20115;-76
2023/10/10 12:35:53;;;;;;;21.75;5.55;;;26.50;29.00;;;;;;5052962;28;20035;-76
2023/10/10 12:38:21;;;;;;;15.23;5.63;;;26.50;29.50;;;;;;5053049;28;20029;-76
2023/10/10 12:40:51;;;;;;;19.67;5.55;;;26.60;29.30;;;;;;5053112;28;20031;-76
2023/10/10 12:43:23;;;;;;;17.77;5.40;;;26.80;28.30;;;;;;5052266;28;20108;-77
2023/10/10 12:45:51;;;;;;;18.30;6.07;;;27.00;28.80;;;;;;5052795;28;20025;-76
2023/10/10 12:48:20;;;;;;;13.55;5.38;;;27.20;28.10;;;;;;5052911;28;20056;-78
2023/10/10 12:50:50;;;;;;;15.32;4.93;;;27.30;28.40;;;;;;5052969;28;20100;-77
2023/10/10 12:53:20;;;;;;;15.25;5.40;;;27.70;27.20;;;;;;5053064;28;20021;-78
2023/10/10 12:55:55;;;;;;;16.15;5.25;;;28.00;26.40;;;;;;5035481;28;20025;-76
2023/10/10 12:58:22;;;;;;;19.25;6.15;;;27.90;25.50;;;;;;5053108;28;20448;-76
2023/10/10 13:00:52;;;;;;;16.02;5.30;;;28.00;25.40;;;;;;5051996;28;20033;-77
2023/10/10 13:03:28;;;;;;;15.70;5.53;;;28.30;25.20;;;;;;5063716;28;20036;-76
2023/10/10 13:06:02;;;;;;;17.92;5.93;;;28.60;25.00;;;;;;5072732;28;20023;-76
2023/10/10 13:08:41;;;;;;;19.40;5.65;;;28.90;25.50;;;;;;5055148;28;20060;-76
2023/10/10 13:11:19;;;;;;;12.77;5.25;;;29.20;25.20;;;;;;5072674;28;20056;-76
2023/10/10 13:13:48;;;;;;;44.80;8.75;;;29.40;24.40;;;;;;5073201;28;20086;-76
2023/10/10 13:19:20;;;;;;;14.23;6.20;;;29.60;24.60;;;;;;5012183;28;20026;-76
2023/10/10 13:21:53;;;;;;;10.82;4.72;;;29.70;24.30;;;;;;5048525;28;20032;-74
2023/10/10 13:24:20;;;;;;;12.85;5.03;;;29.80;23.90;;;;;;5055402;28;20470;-76
2023/10/10 13:26:49;;;;;;;11.45;4.35;;;29.90;23.40;;;;;;5073037;28;20051;-75
2023/10/10 13:29:16;;;;;;;17.55;5.20;;;30.10;23.10;;;;;;5054711;28;20124;-75
2023/10/10 13:31:46;;;;;;;17.60;5.82;;;30.10;23.20;;;;;;5054926;28;20517;-76
2023/10/10 13:34:13;;;;;;;11.80;4.55;;;30.20;22.60;;;;;;5055323;28;20032;-76
2023/10/10 13:36:39;;;;;;;14.05;5.05;;;30.30;22.80;;;;;;5055033;28;20100;-75
2023/10/10 13:39:09;;;;;;;14.07;5.03;;;30.20;21.80;;;;;;5055051;28;20024;-76
2023/10/10 13:41:40;;;;;;;9.55;4.60;;;30.20;22.30;;;;;;5054825;28;20381;-74
2023/10/10 13:44:06;;;;;;;14.95;5.22;;;30.20;23.20;;;;;;5055234;28;20469;-75
2023/10/10 13:46:34;;;;;;;13.57;4.72;;;30.10;23.20;;;;;;5055257;28;20424;-76
2023/10/10 13:49:04;;;;;;;11.70;4.70;;;30.00;23.60;;;;;;5054895;28;20381;-76
2023/10/10 13:51:37;;;;;;;12.60;5.28;;;29.80;22.90;;;;;;5055068;28;20033;-73
2023/10/10 13:54:03;;;;;;;9.98;4.47;;;29.50;22.20;;;;;;5072649;28;20032;-75
2023/10/10 13:56:30;;;;;;;11.98;5.22;;;29.20;24.10;;;;;;5054440;28;20034;-77
2023/10/10 13:58:57;;;;;;;11.18;4.60;;;28.90;23.60;;;;;;5054614;28;20027;-77
2023/10/10 14:04:00;;;;;;;14.35;5.28;;;28.40;25.10;;;;;;5072656;28;20048;-76
2023/10/10 14:06:27;;;;;;;10.70;4.75;;;28.20;25.80;;;;;;5072775;28;20120;-76
2023/10/10 14:08:54;;;;;;;9.30;5.00;;;27.80;23.00;;;;;;5054824;28;20495;-76
2023/10/10 14:11:22;;;;;;;9.07;4.57;;;27.40;22.40;;;;;;5074064;28;20036;-75
2023/10/10 14:13:55;;;;;;;8.05;4.70;;;27.20;23.30;;;;;;5058693;28;20029;-76
2023/10/10 14:16:22;;;;;;;11.63;5.18;;;26.90;22.80;;;;;;5035486;28;20021;-74
2023/10/10 14:18:51;;;;;;;12.27;4.95;;;26.90;23.40;;;;;;5037731;28;20017;-73
2023/10/10 14:21:25;;;;;;;11.27;5.57;;;27.10;24.30;;;;;;5055341;28;20442;-73
2023/10/10 14:24:13;;;;;;;13.90;5.38;;;27.70;23.40;;;;;;5037732;28;20021;-73
2023/10/10 14:26:43;;;;;;;10.25;5.32;;;28.50;21.30;;;;;;5037759;28;20037;-74
2023/10/10 14:29:12;;;;;;;10.10;5.13;;;29.20;20.70;;;;;;5037316;28;20100;-73
2023/10/10 14:31:42;;;;;;;8.18;4.93;;;29.80;19.20;;;;;;5037577;28;20112;-74
2023/10/10 14:34:10;;;;;;;9.90;4.88;;;30.50;19.50;;;;;;5053031;28;20024;-74
2023/10/10 14:36:39;;;;;;;16.90;5.63;;;31.30;17.90;;;;;;5054687;28;20021;-72
2023/10/10 14:39:08;;;;;;;18.65;4.93;;;31.70;18.50;;;;;;5062423;28;20410;-70
2023/10/10 14:41:34;;;;;;;10.13;4.95;;;31.90;17.10;;;;;;5074829;28;20033;-70
2023/10/10 14:44:01;;;;;;;13.65;5.45;;;32.30;17.80;;;;;;5068336;28;20029;-71
2023/10/10 14:46:31;;;;;;;8.80;4.50;;;32.50;16.60;;;;;;5054850;28;20413;-70
2023/10/10 14:49:05;;;;;;;13.02;5.68;;;32.70;16.00;;;;;;5054953;28;20048;-71
2023/10/10 14:51:35;;;;;;;8.60;4.20;;;32.40;16.60;;;;;;5055303;28;20120;-71
2023/10/10 14:54:12;;;;;;;12.65;4.18;;;32.20;16.90;;;;;;5055160;28;20044;-70
2023/10/10 14:56:49;;;;;;;9.50;4.57;;;32.20;17.20;;;;;;5054676;28;20473;-72
2023/10/10 14:59:31;;;;;;;7.47;3.75;;;32.00;17.40;;;;;;5054651;28;20611;-71
2023/10/10 15:02:00;;;;;;;8.02;4.75;;;31.60;17.20;;;;;;5054837;28;20111;-70
2023/10/10 15:04:29;;;;;;;16.02;4.90;;;31.00;18.40;;;;;;5051678;28;20045;-70
2023/10/10 15:06:56;;;;;;;11.68;4.75;;;30.20;19.10;;;;;;5056552;28;20088;-72
2023/10/10 15:09:25;;;;;;;10.82;4.28;;;30.00;20.10;;;;;;5062164;28;20040;-71
2023/10/10 15:11:58;;;;;;;12.05;4.93;;;29.70;20.00;;;;;;5061398;28;20020;-71
2023/10/10 15:14:23;;;;;;;9.38;4.13;;;29.60;20.40;;;;;;5043381;28;20024;-70
2023/10/10 15:16:49;;;;;;;8.95;4.22;;;29.30;21.20;;;;;;5061749;28;20077;-72
2023/10/10 15:19:15;;;;;;;12.27;4.15;;;29.20;21.10;;;;;;5062106;28;20028;-72
2023/10/10 15:21:41;;;;;;;9.07;4.55;;;29.10;21.50;;;;;;5063969;28;20027;-70
2023/10/10 15:24:11;;;;;;;10.93;5.25;;;28.90;21.20;;;;;;5060869;28;20021;-71
2023/10/10 15:26:40;;;;;;;11.18;4.57;;;28.90;21.20;;;;;;5054230;28;20041;-75
2023/10/10 15:29:05;;;;;;;9.75;4.50;;;28.70;21.90;;;;;;5054492;28;20516;-78
2023/10/10 15:31:31;;;;;;;9.27;3.88;;;28.60;22.40;;;;;;5053250;28;20033;-74
2023/10/10 15:34:00;;;;;;;12.85;4.60;;;28.50;22.10;;;;;;5057025;28;20028;-73
2023/10/10 15:36:30;;;;;;;8.35;4.35;;;28.20;22.20;;;;;;5056098;28;20025;-72
2023/10/10 15:38:56;;;;;;;12.63;4.93;;;28.00;23.20;;;;;;5053933;28;20385;-72
2023/10/10 15:41:24;;;;;;;10.52;4.78;;;27.70;23.50;;;;;;5054052;28;20025;-74
2023/10/10 15:43:49;;;;;;;17.35;9.20;;;27.20;24.60;;;;;;5053766;28;20048;-76
2023/10/10 15:46:16;;;;;;;11.90;5.13;;;26.90;25.10;;;;;;5036270;28;20421;-78
2023/10/10 15:48:48;;;;;;;10.63;5.25;;;26.30;31.30;;;;;;5054053;28;20104;-76
2023/10/10 15:51:20;;;;;;;13.25;5.57;;;25.90;33.60;;;;;;5054267;28;20472;-74
2023/10/10 15:53:46;;;;;;;11.65;5.63;;;25.60;34.60;;;;;;5057562;28;20084;-76